DAL8880 KPIT-KMDW
Flight info
| Callsign | DAL8880 |
|---|---|
| Flight time | 1h 7m |
| Altitude | 38000 |
| Route | BSV MAYZE ASHEN PANGG7 |
| Aircraft | B752/M-SDE3FGHIM3RWXY/LB1 |
Departure
| Time | 2026-05-04 02:11 |
|---|---|
| Airport | Pittsburgh International Airport (KPIT) |
Arrival
| Time | 2026-05-04 03:18 |
|---|---|
| Airport | Chicago Midway International Airport (KMDW) |
| Time | Latitude | Longitude | Altitude | Speed | Heading |
|---|---|---|---|---|---|
| 2026-05-04 01:59 | 40.49433 | -80.21784 | 1149 ft | 0 kts | 321° |
| 2026-05-04 02:02 | 40.49433 | -80.21783 | 1149 ft | 0 kts | 321° |
| 2026-05-04 02:06 | 40.49436 | -80.21787 | 1149 ft | 2 kts | 321° |
| 2026-05-04 02:06 | 40.49460 | -80.21813 | 1149 ft | 4 kts | 320° |
| 2026-05-04 02:06 | 40.49472 | -80.21840 | 1149 ft | 3 kts | 278° |
| 2026-05-04 02:07 | 40.49455 | -80.21884 | 1148 ft | 7 kts | 228° |
| 2026-05-04 02:07 | 40.49444 | -80.21899 | 1148 ft | 0 kts | 229° |
| 2026-05-04 02:07 | 40.49423 | -80.21930 | 1147 ft | 12 kts | 227° |
| 2026-05-04 02:08 | 40.49421 | -80.22040 | 1146 ft | 15 kts | 314° |
| 2026-05-04 02:08 | 40.49503 | -80.22142 | 1145 ft | 19 kts | 316° |
| 2026-05-04 02:08 | 40.49610 | -80.22276 | 1143 ft | 22 kts | 316° |
| 2026-05-04 02:08 | 40.49706 | -80.22431 | 1141 ft | 22 kts | 301° |
| 2026-05-04 02:09 | 40.49783 | -80.22611 | 1137 ft | 22 kts | 299° |
| 2026-05-04 02:09 | 40.49861 | -80.22795 | 1137 ft | 23 kts | 299° |
| 2026-05-04 02:09 | 40.49937 | -80.22974 | 1141 ft | 21 kts | 299° |
| 2026-05-04 02:09 | 40.50005 | -80.23135 | 1148 ft | 18 kts | 299° |
| 2026-05-04 02:10 | 40.50061 | -80.23268 | 1156 ft | 14 kts | 298° |
| 2026-05-04 02:10 | 40.50124 | -80.23383 | 1161 ft | 10 kts | 310° |
| 2026-05-04 02:10 | 40.50137 | -80.23443 | 1164 ft | 3 kts | 273° |
| 2026-05-04 02:10 | 40.50143 | -80.23640 | 1173 ft | 50 kts | 271° |
| 2026-05-04 02:11 | 40.50162 | -80.24404 | 1173 ft | 117 kts | 272° |
| 2026-05-04 02:11 | 40.50197 | -80.25743 | 1268 ft | 168 kts | 271° |
| 2026-05-04 02:11 | 40.50271 | -80.27295 | 2125 ft | 173 kts | 281° |
| 2026-05-04 02:11 | 40.50633 | -80.28728 | 2993 ft | 171 kts | 289° |
| 2026-05-04 02:12 | 40.51133 | -80.30238 | 3375 ft | 191 kts | 291° |
| 2026-05-04 02:12 | 40.51700 | -80.31895 | 3893 ft | 206 kts | 290° |
| 2026-05-04 02:12 | 40.52279 | -80.33688 | 4401 ft | 223 kts | 286° |
| 2026-05-04 02:12 | 40.52690 | -80.35729 | 4936 ft | 239 kts | 280° |
| 2026-05-04 02:13 | 40.53096 | -80.37898 | 5621 ft | 251 kts | 282° |
| 2026-05-04 02:13 | 40.53532 | -80.40105 | 6574 ft | 252 kts | 282° |
| 2026-05-04 02:13 | 40.53973 | -80.42320 | 7415 ft | 257 kts | 282° |
| 2026-05-04 02:13 | 40.54426 | -80.44566 | 8314 ft | 259 kts | 283° |
| 2026-05-04 02:14 | 40.54889 | -80.46860 | 9138 ft | 264 kts | 283° |
| 2026-05-04 02:14 | 40.55358 | -80.49171 | 10020 ft | 266 kts | 284° |
| 2026-05-04 02:14 | 40.55843 | -80.51556 | 10638 ft | 279 kts | 284° |
| 2026-05-04 02:14 | 40.56363 | -80.54120 | 11030 ft | 299 kts | 284° |
| 2026-05-04 02:15 | 40.56910 | -80.56815 | 11439 ft | 318 kts | 284° |
| 2026-05-04 02:15 | 40.57491 | -80.59680 | 12081 ft | 329 kts | 284° |
| 2026-05-04 02:15 | 40.58078 | -80.62576 | 12955 ft | 331 kts | 284° |
| 2026-05-04 02:15 | 40.58670 | -80.65504 | 13730 ft | 336 kts | 284° |
| 2026-05-04 02:16 | 40.59274 | -80.68495 | 14529 ft | 340 kts | 284° |
| 2026-05-04 02:16 | 40.59878 | -80.71488 | 15280 ft | 343 kts | 284° |
| 2026-05-04 02:16 | 40.60491 | -80.74533 | 16018 ft | 347 kts | 284° |
| 2026-05-04 02:16 | 40.61110 | -80.77611 | 16752 ft | 350 kts | 284° |
| 2026-05-04 02:17 | 40.61728 | -80.80692 | 17461 ft | 353 kts | 284° |
| 2026-05-04 02:17 | 40.62362 | -80.83850 | 18252 ft | 356 kts | 285° |
| 2026-05-04 02:17 | 40.62987 | -80.86978 | 19019 ft | 359 kts | 285° |
| 2026-05-04 02:17 | 40.63622 | -80.90153 | 19805 ft | 360 kts | 285° |
| 2026-05-04 02:18 | 40.64253 | -80.93315 | 20535 ft | 363 kts | 285° |
| 2026-05-04 02:18 | 40.64899 | -80.96558 | 21256 ft | 366 kts | 285° |
| 2026-05-04 02:18 | 40.65535 | -80.99757 | 21994 ft | 367 kts | 285° |
| 2026-05-04 02:18 | 40.66182 | -81.03017 | 22693 ft | 370 kts | 285° |
| 2026-05-04 02:19 | 40.66834 | -81.06306 | 23292 ft | 374 kts | 285° |
| 2026-05-04 02:19 | 40.67493 | -81.09638 | 23867 ft | 378 kts | 285° |
| 2026-05-04 02:19 | 40.68150 | -81.12958 | 24544 ft | 379 kts | 285° |
| 2026-05-04 02:19 | 40.68815 | -81.16331 | 25050 ft | 385 kts | 285° |
| 2026-05-04 02:20 | 40.69491 | -81.19763 | 25789 ft | 385 kts | 285° |
| 2026-05-04 02:20 | 40.70157 | -81.23151 | 26338 ft | 388 kts | 285° |
| 2026-05-04 02:20 | 40.70836 | -81.26610 | 26943 ft | 390 kts | 285° |
| 2026-05-04 02:20 | 40.71508 | -81.30041 | 27393 ft | 394 kts | 285° |
| 2026-05-04 02:21 | 40.72197 | -81.33565 | 27962 ft | 395 kts | 285° |
| 2026-05-04 02:21 | 40.72877 | -81.37051 | 28425 ft | 398 kts | 285° |
| 2026-05-04 02:21 | 40.73573 | -81.40621 | 28871 ft | 401 kts | 285° |
| 2026-05-04 02:21 | 40.74402 | -81.44099 | 29271 ft | 404 kts | 292° |
| 2026-05-04 02:22 | 40.75497 | -81.47482 | 29751 ft | 405 kts | 293° |
| 2026-05-04 02:22 | 40.76607 | -81.50928 | 30089 ft | 410 kts | 293° |
| 2026-05-04 02:22 | 40.77718 | -81.54368 | 30508 ft | 411 kts | 293° |
| 2026-05-04 02:22 | 40.78836 | -81.57829 | 30886 ft | 414 kts | 292° |
| 2026-05-04 02:23 | 40.79975 | -81.61355 | 31198 ft | 417 kts | 293° |
| 2026-05-04 02:23 | 40.81103 | -81.64848 | 31495 ft | 420 kts | 293° |
| 2026-05-04 02:23 | 40.82259 | -81.68432 | 31925 ft | 419 kts | 292° |
| 2026-05-04 02:23 | 40.83397 | -81.71962 | 32369 ft | 419 kts | 292° |
| 2026-05-04 02:24 | 40.84524 | -81.75462 | 32774 ft | 418 kts | 292° |
| 2026-05-04 02:24 | 40.85656 | -81.78982 | 33223 ft | 417 kts | 292° |
| 2026-05-04 02:24 | 40.86800 | -81.82542 | 33601 ft | 417 kts | 292° |
| 2026-05-04 02:24 | 40.87927 | -81.86056 | 33981 ft | 416 kts | 292° |
| 2026-05-04 02:25 | 40.89055 | -81.89574 | 34318 ft | 416 kts | 292° |
| 2026-05-04 02:25 | 40.90166 | -81.93047 | 34638 ft | 416 kts | 292° |
| 2026-05-04 02:25 | 40.91287 | -81.96555 | 34952 ft | 415 kts | 292° |
| 2026-05-04 02:25 | 40.92414 | -82.00084 | 35256 ft | 414 kts | 292° |
| 2026-05-04 02:26 | 40.93530 | -82.03585 | 35529 ft | 414 kts | 292° |
| 2026-05-04 02:26 | 40.94640 | -82.07072 | 35774 ft | 414 kts | 292° |
| 2026-05-04 02:26 | 40.95767 | -82.10615 | 36015 ft | 414 kts | 292° |
| 2026-05-04 02:26 | 40.96878 | -82.14115 | 36264 ft | 413 kts | 292° |
| 2026-05-04 02:27 | 40.97993 | -82.17629 | 36440 ft | 414 kts | 292° |
| 2026-05-04 02:27 | 40.99099 | -82.21122 | 36635 ft | 414 kts | 292° |
| 2026-05-04 02:27 | 41.00219 | -82.24663 | 36820 ft | 414 kts | 292° |
| 2026-05-04 02:27 | 41.01333 | -82.28191 | 36989 ft | 415 kts | 292° |
| 2026-05-04 02:28 | 41.02445 | -82.31713 | 37177 ft | 415 kts | 292° |
| 2026-05-04 02:28 | 41.03558 | -82.35246 | 37351 ft | 415 kts | 292° |
| 2026-05-04 02:28 | 41.04666 | -82.38766 | 37511 ft | 415 kts | 292° |
| 2026-05-04 02:28 | 41.05773 | -82.42289 | 37657 ft | 416 kts | 292° |
| 2026-05-04 02:29 | 41.06897 | -82.45869 | 37793 ft | 416 kts | 292° |
| 2026-05-04 02:29 | 41.08003 | -82.49400 | 37921 ft | 412 kts | 291° |
| 2026-05-04 02:29 | 41.10193 | -82.56402 | 37939 ft | 414 kts | 292° |
| 2026-05-04 02:30 | 41.12401 | -82.63478 | 37933 ft | 416 kts | 292° |
| 2026-05-04 02:30 | 41.14613 | -82.70588 | 37946 ft | 414 kts | 291° |
| 2026-05-04 02:31 | 41.16803 | -82.77640 | 37954 ft | 415 kts | 291° |
| 2026-05-04 02:31 | 41.18992 | -82.84714 | 37942 ft | 415 kts | 291° |
| 2026-05-04 02:32 | 41.21188 | -82.91827 | 37947 ft | 416 kts | 291° |
| 2026-05-04 02:32 | 41.23367 | -82.98905 | 37940 ft | 416 kts | 291° |
| 2026-05-04 02:33 | 41.25559 | -83.06040 | 37934 ft | 416 kts | 291° |
| 2026-05-04 02:33 | 41.27750 | -83.13195 | 37933 ft | 416 kts | 291° |
| 2026-05-04 02:34 | 41.29921 | -83.20303 | 37932 ft | 416 kts | 291° |
| 2026-05-04 02:34 | 41.32087 | -83.27412 | 37926 ft | 416 kts | 291° |
| 2026-05-04 02:35 | 41.34244 | -83.34515 | 37917 ft | 416 kts | 291° |
| 2026-05-04 02:35 | 41.36410 | -83.41665 | 37910 ft | 417 kts | 291° |
| 2026-05-04 02:36 | 41.38572 | -83.48818 | 37911 ft | 415 kts | 292° |
| 2026-05-04 02:36 | 41.40719 | -83.55943 | 37853 ft | 418 kts | 292° |
| 2026-05-04 02:37 | 41.41803 | -83.59546 | 37540 ft | 422 kts | 292° |
| 2026-05-04 02:37 | 41.42869 | -83.63142 | 37234 ft | 417 kts | 290° |
| 2026-05-04 02:37 | 41.43612 | -83.66882 | 36934 ft | 412 kts | 279° |
| 2026-05-04 02:37 | 41.43908 | -83.70630 | 36657 ft | 408 kts | 276° |
| 2026-05-04 02:38 | 41.44132 | -83.74402 | 36376 ft | 406 kts | 276° |
| 2026-05-04 02:38 | 41.44340 | -83.78142 | 36096 ft | 406 kts | 276° |
| 2026-05-04 02:38 | 41.44532 | -83.81870 | 35816 ft | 407 kts | 275° |
| 2026-05-04 02:38 | 41.44717 | -83.85637 | 35526 ft | 407 kts | 275° |
| 2026-05-04 02:39 | 41.44896 | -83.89401 | 35240 ft | 408 kts | 275° |
| 2026-05-04 02:39 | 41.45070 | -83.93148 | 34955 ft | 408 kts | 276° |
| 2026-05-04 02:39 | 41.45241 | -83.96914 | 34656 ft | 407 kts | 275° |
| 2026-05-04 02:39 | 41.45410 | -84.00691 | 34351 ft | 407 kts | 275° |
| 2026-05-04 02:40 | 41.45574 | -84.04412 | 34042 ft | 408 kts | 275° |
| 2026-05-04 02:40 | 41.45741 | -84.08199 | 33684 ft | 410 kts | 275° |
| 2026-05-04 02:40 | 41.45904 | -84.11974 | 33334 ft | 411 kts | 276° |
| 2026-05-04 02:40 | 41.46067 | -84.15783 | 32974 ft | 412 kts | 276° |
| 2026-05-04 02:41 | 41.46228 | -84.19566 | 32631 ft | 412 kts | 276° |
| 2026-05-04 02:41 | 41.46390 | -84.23389 | 32271 ft | 411 kts | 276° |
| 2026-05-04 02:41 | 41.46547 | -84.27156 | 31912 ft | 409 kts | 276° |
| 2026-05-04 02:41 | 41.46704 | -84.30935 | 31552 ft | 406 kts | 276° |
| 2026-05-04 02:42 | 41.46856 | -84.34631 | 31195 ft | 405 kts | 276° |
| 2026-05-04 02:42 | 41.47009 | -84.38372 | 30808 ft | 404 kts | 276° |
| 2026-05-04 02:42 | 41.47160 | -84.42076 | 30403 ft | 401 kts | 276° |
| 2026-05-04 02:42 | 41.47308 | -84.45754 | 29996 ft | 398 kts | 276° |
| 2026-05-04 02:43 | 41.47454 | -84.49421 | 29881 ft | 389 kts | 276° |
| 2026-05-04 02:43 | 41.47595 | -84.52988 | 29892 ft | 391 kts | 276° |
| 2026-05-04 02:43 | 41.47883 | -84.60310 | 29887 ft | 398 kts | 276° |
| 2026-05-04 02:44 | 41.48174 | -84.67702 | 29884 ft | 405 kts | 275° |
| 2026-05-04 02:44 | 41.48476 | -84.75204 | 29876 ft | 396 kts | 276° |
| 2026-05-04 02:45 | 41.48768 | -84.82548 | 29875 ft | 399 kts | 275° |
| 2026-05-04 02:45 | 41.49055 | -84.89893 | 29875 ft | 397 kts | 276° |
| 2026-05-04 02:46 | 41.49339 | -84.97278 | 29870 ft | 399 kts | 275° |
| 2026-05-04 02:46 | 41.49618 | -85.04668 | 29466 ft | 406 kts | 275° |
| 2026-05-04 02:47 | 41.49758 | -85.08430 | 28992 ft | 400 kts | 275° |
| 2026-05-04 02:47 | 41.49890 | -85.12047 | 28544 ft | 390 kts | 275° |
| 2026-05-04 02:47 | 41.50021 | -85.15637 | 28089 ft | 383 kts | 275° |
| 2026-05-04 02:47 | 41.50149 | -85.19156 | 27649 ft | 382 kts | 275° |
| 2026-05-04 02:48 | 41.50277 | -85.22701 | 27219 ft | 382 kts | 275° |
| 2026-05-04 02:48 | 41.50402 | -85.26207 | 26790 ft | 381 kts | 275° |
| 2026-05-04 02:48 | 41.50527 | -85.29724 | 26355 ft | 377 kts | 275° |
| 2026-05-04 02:48 | 41.50647 | -85.33160 | 25933 ft | 374 kts | 275° |
| 2026-05-04 02:49 | 41.50767 | -85.36610 | 25510 ft | 372 kts | 275° |
| 2026-05-04 02:49 | 41.50886 | -85.40052 | 25083 ft | 369 kts | 275° |
| 2026-05-04 02:49 | 41.51002 | -85.43452 | 24666 ft | 367 kts | 275° |
| 2026-05-04 02:49 | 41.51117 | -85.46827 | 24252 ft | 366 kts | 275° |
| 2026-05-04 02:50 | 41.51230 | -85.50181 | 23849 ft | 364 kts | 275° |
| 2026-05-04 02:50 | 41.51342 | -85.53537 | 23166 ft | 367 kts | 275° |
| 2026-05-04 02:50 | 41.51455 | -85.56945 | 22361 ft | 369 kts | 275° |
| 2026-05-04 02:50 | 41.51567 | -85.60364 | 21556 ft | 369 kts | 275° |
| 2026-05-04 02:51 | 41.51651 | -85.63694 | 21125 ft | 361 kts | 274° |
| 2026-05-04 02:51 | 41.51720 | -85.67065 | 20551 ft | 356 kts | 274° |
| 2026-05-04 02:51 | 41.51788 | -85.70300 | 20013 ft | 352 kts | 274° |
| 2026-05-04 02:51 | 41.51855 | -85.73535 | 19497 ft | 347 kts | 274° |
| 2026-05-04 02:52 | 41.51920 | -85.76722 | 19002 ft | 341 kts | 274° |
| 2026-05-04 02:52 | 41.51984 | -85.79863 | 18531 ft | 336 kts | 274° |
| 2026-05-04 02:52 | 41.52045 | -85.82925 | 18093 ft | 332 kts | 274° |
| 2026-05-04 02:52 | 41.52105 | -85.86005 | 17664 ft | 331 kts | 274° |
| 2026-05-04 02:53 | 41.52166 | -85.89079 | 17255 ft | 332 kts | 274° |
| 2026-05-04 02:53 | 41.52224 | -85.92114 | 16853 ft | 331 kts | 274° |
| 2026-05-04 02:53 | 41.52282 | -85.95163 | 16454 ft | 328 kts | 274° |
| 2026-05-04 02:53 | 41.52338 | -85.98191 | 16064 ft | 325 kts | 273° |
| 2026-05-04 02:54 | 41.52393 | -86.01170 | 15686 ft | 323 kts | 274° |
| 2026-05-04 02:54 | 41.52446 | -86.04153 | 15314 ft | 322 kts | 274° |
| 2026-05-04 02:54 | 41.52497 | -86.07146 | 14951 ft | 322 kts | 273° |
| 2026-05-04 02:54 | 41.52494 | -86.10136 | 14555 ft | 322 kts | 272° |
| 2026-05-04 02:55 | 41.52467 | -86.16054 | 13793 ft | 318 kts | 272° |
| 2026-05-04 02:55 | 41.52454 | -86.18978 | 13420 ft | 316 kts | 272° |
| 2026-05-04 02:55 | 41.52440 | -86.21915 | 13042 ft | 316 kts | 272° |
| 2026-05-04 02:56 | 41.52426 | -86.24799 | 12675 ft | 314 kts | 272° |
| 2026-05-04 02:56 | 41.52410 | -86.27704 | 12311 ft | 312 kts | 272° |
| 2026-05-04 02:56 | 41.52395 | -86.30601 | 11942 ft | 311 kts | 272° |
| 2026-05-04 02:56 | 41.52379 | -86.33450 | 11583 ft | 309 kts | 272° |
| 2026-05-04 02:57 | 41.52362 | -86.36327 | 11225 ft | 308 kts | 272° |
| 2026-05-04 02:57 | 41.52343 | -86.39174 | 10875 ft | 305 kts | 272° |
| 2026-05-04 02:57 | 41.52325 | -86.41985 | 10470 ft | 306 kts | 271° |
| 2026-05-04 02:57 | 41.52307 | -86.44813 | 9923 ft | 307 kts | 272° |
| 2026-05-04 02:58 | 41.52287 | -86.47559 | 9780 ft | 287 kts | 272° |
| 2026-05-04 02:58 | 41.52266 | -86.50063 | 9854 ft | 258 kts | 272° |
| 2026-05-04 02:58 | 41.52249 | -86.52437 | 9829 ft | 250 kts | 272° |
| 2026-05-04 02:58 | 41.52233 | -86.54743 | 9839 ft | 251 kts | 272° |
| 2026-05-04 02:59 | 41.52216 | -86.57073 | 9837 ft | 253 kts | 272° |
| 2026-05-04 02:59 | 41.52199 | -86.59417 | 9802 ft | 254 kts | 272° |
| 2026-05-04 02:59 | 41.52179 | -86.61761 | 9737 ft | 253 kts | 272° |
| 2026-05-04 02:59 | 41.52160 | -86.64124 | 9673 ft | 253 kts | 272° |
| 2026-05-04 03:00 | 41.52140 | -86.66455 | 9619 ft | 253 kts | 271° |
| 2026-05-04 03:00 | 41.52120 | -86.68810 | 9564 ft | 253 kts | 272° |
| 2026-05-04 03:00 | 41.52100 | -86.71146 | 9512 ft | 254 kts | 271° |
| 2026-05-04 03:00 | 41.52078 | -86.73507 | 9459 ft | 254 kts | 271° |
| 2026-05-04 03:01 | 41.52056 | -86.75861 | 9402 ft | 253 kts | 272° |
| 2026-05-04 03:01 | 41.52034 | -86.78188 | 9349 ft | 252 kts | 271° |
| 2026-05-04 03:01 | 41.52011 | -86.80553 | 9297 ft | 253 kts | 271° |
| 2026-05-04 03:01 | 41.51988 | -86.82906 | 9246 ft | 253 kts | 272° |
| 2026-05-04 03:02 | 41.51965 | -86.85222 | 9193 ft | 252 kts | 272° |
| 2026-05-04 03:02 | 41.51940 | -86.87581 | 9138 ft | 253 kts | 271° |
| 2026-05-04 03:02 | 41.51916 | -86.89912 | 9082 ft | 252 kts | 271° |
| 2026-05-04 03:02 | 41.51891 | -86.92252 | 8934 ft | 253 kts | 271° |
| 2026-05-04 03:03 | 41.51865 | -86.94607 | 8613 ft | 254 kts | 271° |
| 2026-05-04 03:03 | 41.51838 | -86.96939 | 8300 ft | 251 kts | 271° |
| 2026-05-04 03:03 | 41.51812 | -86.99231 | 7996 ft | 248 kts | 271° |
| 2026-05-04 03:03 | 41.51785 | -87.01527 | 7678 ft | 245 kts | 271° |
| 2026-05-04 03:04 | 41.51757 | -87.03800 | 7366 ft | 243 kts | 271° |
| 2026-05-04 03:04 | 41.51731 | -87.06042 | 7075 ft | 241 kts | 271° |
| 2026-05-04 03:04 | 41.51703 | -87.08298 | 6790 ft | 242 kts | 271° |
| 2026-05-04 03:04 | 41.51675 | -87.10519 | 6504 ft | 241 kts | 271° |
| 2026-05-04 03:05 | 41.51653 | -87.12764 | 6217 ft | 240 kts | 274° |
| 2026-05-04 03:05 | 41.52070 | -87.14870 | 5947 ft | 237 kts | 301° |
| 2026-05-04 03:05 | 41.53270 | -87.16354 | 5860 ft | 238 kts | 329° |
| 2026-05-04 03:05 | 41.54803 | -87.17255 | 5847 ft | 245 kts | 333° |
| 2026-05-04 03:06 | 41.56372 | -87.18128 | 5834 ft | 246 kts | 334° |
| 2026-05-04 03:06 | 41.57972 | -87.18981 | 5848 ft | 245 kts | 334° |
| 2026-05-04 03:06 | 41.59568 | -87.19812 | 5816 ft | 245 kts | 335° |
| 2026-05-04 03:06 | 41.61150 | -87.20622 | 5838 ft | 246 kts | 335° |
| 2026-05-04 03:07 | 41.62754 | -87.21436 | 5842 ft | 247 kts | 335° |
| 2026-05-04 03:07 | 41.64364 | -87.22250 | 5834 ft | 247 kts | 335° |
| 2026-05-04 03:07 | 41.65958 | -87.23052 | 5821 ft | 246 kts | 335° |
| 2026-05-04 03:07 | 41.67572 | -87.23863 | 5830 ft | 246 kts | 335° |
| 2026-05-04 03:08 | 41.69179 | -87.24671 | 5813 ft | 246 kts | 336° |
| 2026-05-04 03:08 | 41.70792 | -87.25481 | 5804 ft | 246 kts | 335° |
| 2026-05-04 03:08 | 41.72395 | -87.26286 | 5801 ft | 246 kts | 335° |
| 2026-05-04 03:08 | 41.73975 | -87.27080 | 5796 ft | 245 kts | 335° |
| 2026-05-04 03:09 | 41.75585 | -87.27891 | 5815 ft | 246 kts | 335° |
| 2026-05-04 03:09 | 41.77165 | -87.28826 | 5589 ft | 251 kts | 331° |
| 2026-05-04 03:09 | 41.78734 | -87.29826 | 5248 ft | 250 kts | 331° |
| 2026-05-04 03:09 | 41.80299 | -87.30806 | 4941 ft | 247 kts | 331° |
| 2026-05-04 03:10 | 41.81855 | -87.31777 | 4762 ft | 240 kts | 331° |
| 2026-05-04 03:10 | 41.83346 | -87.32739 | 4553 ft | 239 kts | 324° |
| 2026-05-04 03:10 | 41.84493 | -87.34316 | 4302 ft | 235 kts | 295° |
| 2026-05-04 03:10 | 41.84874 | -87.36417 | 3979 ft | 237 kts | 273° |
| 2026-05-04 03:11 | 41.84920 | -87.38601 | 3690 ft | 234 kts | 272° |
| 2026-05-04 03:11 | 41.84963 | -87.40772 | 3358 ft | 233 kts | 271° |
| 2026-05-04 03:11 | 41.84988 | -87.42931 | 3069 ft | 231 kts | 271° |
| 2026-05-04 03:11 | 41.85002 | -87.45046 | 2967 ft | 220 kts | 270° |
| 2026-05-04 03:12 | 41.85009 | -87.47047 | 2974 ft | 205 kts | 270° |
| 2026-05-04 03:12 | 41.85012 | -87.48907 | 2985 ft | 195 kts | 270° |
| 2026-05-04 03:12 | 41.85014 | -87.50704 | 2998 ft | 190 kts | 270° |
| 2026-05-04 03:12 | 41.85014 | -87.52422 | 3024 ft | 174 kts | 270° |
| 2026-05-04 03:13 | 41.85013 | -87.53973 | 2997 ft | 163 kts | 270° |
| 2026-05-04 03:13 | 41.84992 | -87.55475 | 2998 ft | 165 kts | 268° |
| 2026-05-04 03:13 | 41.84920 | -87.57052 | 2995 ft | 167 kts | 268° |
| 2026-05-04 03:13 | 41.84856 | -87.58470 | 2992 ft | 136 kts | 268° |
| 2026-05-04 03:14 | 41.84805 | -87.59623 | 2956 ft | 119 kts | 268° |
| 2026-05-04 03:14 | 41.84755 | -87.60754 | 3007 ft | 125 kts | 268° |
| 2026-05-04 03:14 | 41.84698 | -87.61951 | 2847 ft | 134 kts | 266° |
| 2026-05-04 03:14 | 41.84639 | -87.63148 | 2590 ft | 121 kts | 266° |
| 2026-05-04 03:15 | 41.84587 | -87.64204 | 2434 ft | 104 kts | 264° |
| 2026-05-04 03:15 | 41.84382 | -87.65106 | 2393 ft | 105 kts | 248° |
| 2026-05-04 03:15 | 41.84082 | -87.66061 | 2224 ft | 113 kts | 249° |
| 2026-05-04 03:15 | 41.83791 | -87.67011 | 2021 ft | 105 kts | 248° |
| 2026-05-04 03:16 | 41.83518 | -87.67886 | 1921 ft | 102 kts | 248° |
| 2026-05-04 03:16 | 41.83234 | -87.68806 | 1834 ft | 111 kts | 245° |
| 2026-05-04 03:16 | 41.82819 | -87.69681 | 1605 ft | 109 kts | 230° |
| 2026-05-04 03:16 | 41.82281 | -87.70361 | 1449 ft | 107 kts | 226° |
| 2026-05-04 03:17 | 41.81726 | -87.71072 | 1327 ft | 111 kts | 227° |
| 2026-05-04 03:17 | 41.81164 | -87.71807 | 1191 ft | 112 kts | 225° |
| 2026-05-04 03:17 | 41.80598 | -87.72527 | 1030 ft | 113 kts | 224° |
| 2026-05-04 03:17 | 41.80017 | -87.73267 | 886 ft | 115 kts | 224° |
| 2026-05-04 03:18 | 41.79432 | -87.74010 | 723 ft | 118 kts | 223° |
| 2026-05-04 03:18 | 41.78839 | -87.74766 | 617 ft | 116 kts | 221° |
| 2026-05-04 03:18 | 41.78388 | -87.75333 | 619 ft | 60 kts | 223° |
| 2026-05-04 03:18 | 41.78194 | -87.75523 | 620 ft | 20 kts | 192° |
| 2026-05-04 03:19 | 41.78104 | -87.75544 | 621 ft | 5 kts | 154° |
| 2026-05-04 03:19 | 41.78109 | -87.75489 | 621 ft | 11 kts | 52° |
| 2026-05-04 03:19 | 41.78185 | -87.75388 | 620 ft | 17 kts | 43° |
| 2026-05-04 03:19 | 41.78279 | -87.75270 | 619 ft | 19 kts | 43° |
| 2026-05-04 03:20 | 41.78380 | -87.75141 | 618 ft | 21 kts | 43° |
| 2026-05-04 03:20 | 41.78491 | -87.75001 | 617 ft | 22 kts | 43° |
| 2026-05-04 03:20 | 41.78585 | -87.74882 | 616 ft | 17 kts | 44° |
| 2026-05-04 03:20 | 41.78608 | -87.74787 | 616 ft | 10 kts | 126° |
| 2026-05-04 03:21 | 41.78541 | -87.74693 | 616 ft | 18 kts | 133° |
| 2026-05-04 03:21 | 41.78472 | -87.74590 | 616 ft | 9 kts | 113° |
| 2026-05-04 03:21 | 41.78502 | -87.74517 | 616 ft | 10 kts | 44° |
| 2026-05-04 03:21 | 41.78572 | -87.74428 | 616 ft | 15 kts | 44° |
| 2026-05-04 03:22 | 41.78634 | -87.74348 | 616 ft | 8 kts | 44° |
| 2026-05-04 03:22 | 41.78650 | -87.74326 | 616 ft | 0 kts | 59° |
| 2026-05-04 03:22 | 41.78652 | -87.74307 | 615 ft | 4 kts | 101° |
| 2026-05-04 03:23 | 41.78640 | -87.74282 | 615 ft | 3 kts | 123° |
| 2026-05-04 03:23 | 41.78628 | -87.74256 | 615 ft | 1 kts | 124° |
| 2026-05-04 03:23 | 41.78627 | -87.74255 | 615 ft | 0 kts | 124° |